EST,Max TemperatureF,Mean TemperatureF,Min TemperatureF,Max Dew PointF,MeanDew PointF,Min DewpointF,Max Humidity, Mean Humidity, Min Humidity, Max Sea Level PressureIn, Mean Sea Level PressureIn, Min Sea Level PressureIn, Max VisibilityMiles, Mean VisibilityMiles, Min VisibilityMiles, Max Wind SpeedMPH, Mean Wind SpeedMPH, Max Gust SpeedMPH,PrecipitationIn, CloudCover, Events, WindDirDegrees
2012-11-1,57,50,44,44,41,38,83,71,53,29.59,29.55,29.52,10,10,9,15,4,22,0.00,4,Rain,221
2012-11-2,52,44,35,41,37,32,89,71,53,29.62,29.57,29.54,10,10,10,9,3,,0.00,6,Rain,281
2012-11-3,55,44,34,35,32,29,89,62,43,29.81,29.71,29.62,10,10,10,12,5,17,0.00,2,,295
2012-11-4,55,42,30,34,31,28,93,66,47,29.94,29.87,29.81,10,10,6,9,5,17,0.00,1,,297
2012-11-5,45,36,24,30,24,19,92,61,40,30.14,30.01,29.95,10,10,10,9,4,16,0.00,4,,324
2012-11-6,44,32,19,23,18,13,89,67,30,30.24,30.19,30.14,10,10,10,6,1,,0.00,0,,351
2012-11-7,46,36,27,37,33,24,89,80,60,30.12,29.85,29.66,10,6,2,20,10,37,1.08,8,Rain-Snow,28
2012-11-8,39,36,34,36,35,31,89,87,79,29.73,29.59,29.53,10,5,2,23,16,38,0.32,8,Rain-Snow,349
2012-11-9,55,44,30,32,26,20,82,55,25,30.12,29.93,29.74,10,10,10,16,8,22,0.00,2,,317
2012-11-10,55,42,28,35,30,25,92,74,34,30.46,30.31,30.12,10,9,2,12,2,,0.00,0,,323
2012-11-11,62,46,30,51,42,29,96,78,50,30.52,30.48,30.44,10,8,2,12,3,20,0.00,3,,196
2012-11-12,66,54,41,59,52,40,97,83,65,30.49,30.43,30.25,10,7,0,13,5,23,0.00,5,Fog,190
2012-11-13,66,54,42,61,48,30,90,82,60,30.40,30.25,30.16,10,9,3,16,10,25,0.14,8,Rain,293
2012-11-14,46,37,28,32,29,25,92,67,47,30.51,30.46,30.39,10,10,10,15,6,23,0.00,4,,353
2012-11-15,43,40,36,32,31,29,76,70,65,30.42,30.37,30.30,10,10,10,14,6,18,0.00,8,,352
2012-11-16,48,38,27,33,29,24,92,76,51,30.42,30.33,30.28,10,8,1,9,3,,0.00,1,,339
2012-11-17,51,38,25,33,26,22,93,82,50,30.65,30.59,30.42,10,5,0,9,1,,0.00,1,Fog,348
2012-11-18,50,36,23,34,26,19,92,76,44,30.70,30.66,30.61,10,8,4,10,1,,0.00,0,,47
2012-11-19,51,38,25,37,30,22,93,80,56,30.61,30.44,30.26,10,7,1,8,1,,0.00,4,,11
2012-11-20,52,40,28,38,30,26,96,85,54,30.26,30.18,30.12,10,5,0,9,1,,0.00,2,Fog,350
2012-11-21,53,40,28,43,35,27,92,85,64,30.24,30.18,30.14,10,6,0,12,2,18,0.00,3,Fog,353
2012-11-22,55,42,28,43,34,27,97,88,47,30.27,30.21,30.14,10,4,0,8,2,,0.00,4,Fog,356
2012-11-23,53,40,28,44,37,27,97,90,64,30.12,29.89,29.66,10,4,0,8,2,,0.00,6,Fog,164
2012-11-24,48,40,33,45,26,14,93,56,33,29.68,29.60,29.55,10,10,2,16,7,26,0.00,3,,281
2012-11-25,39,32,26,21,17,15,75,52,40,29.89,29.79,29.69,10,10,10,18,10,29,0.00,1,,265
2012-11-26,48,36,23,23,20,17,85,57,33,30.25,30.06,29.90,10,10,10,14,6,23,0.00,1,,260
2012-11-27,37,30,24,32,30,20,93,89,76,30.33,30.27,30.19,10,4,1,6,1,,0.20,7,Rain-Snow,15
2012-11-28,39,31,21,32,27,18,92,79,55,30.18,30.15,30.11,10,9,5,13,6,20,0.01,6,Rain,338
2012-11-29,43,32,21,26,22,18,85,61,45,30.28,30.22,30.18,10,10,10,13,6,21,0.00,0,,252
2012-11-30,39,32,26,25,18,7,84,56,28,30.54,30.43,30.25,10,10,9,9,5,,0.00,4,,3